createdAt,value
2018-10-21T00:00:41.860Z,8.47
2018-10-21T00:03:09.877Z,8.60
2018-10-21T00:05:36.677Z,8.63
2018-10-21T00:08:06.859Z,8.57
2018-10-21T00:10:39.112Z,8.20
2018-10-21T00:13:06.099Z,8.45
2018-10-21T00:15:33.236Z,8.46
2018-10-21T00:18:00.039Z,8.51
2018-10-21T00:20:26.995Z,8.65
2018-10-21T00:22:53.876Z,8.60
2018-10-21T00:25:20.751Z,8.58
2018-10-21T00:27:47.700Z,8.58
2018-10-21T00:30:14.671Z,8.59
2018-10-21T00:32:49.409Z,8.55
2018-10-21T00:35:24.495Z,8.52
2018-10-21T00:37:51.499Z,8.37
2018-10-21T00:40:18.426Z,8.36
2018-10-21T00:42:45.419Z,8.31
2018-10-21T00:45:12.410Z,8.30
2018-10-21T00:47:39.416Z,8.24
2018-10-21T00:50:07.271Z,8.18
2018-10-21T00:52:34.238Z,8.19
2018-10-21T00:55:01.182Z,8.19
2018-10-21T01:00:03.458Z,7.87
2018-10-21T01:02:30.388Z,7.71
2018-10-21T01:04:57.406Z,7.70
2018-10-21T01:07:26.555Z,7.69
2018-10-21T01:09:53.482Z,7.80
2018-10-21T01:12:20.339Z,7.74
2018-10-21T01:14:47.291Z,7.81
2018-10-21T01:17:14.299Z,7.88
2018-10-21T01:19:45.283Z,7.94
2018-10-21T01:22:12.227Z,7.80
2018-10-21T01:24:39.092Z,7.58
2018-10-21T01:27:06.159Z,7.56
2018-10-21T01:29:32.999Z,7.78
2018-10-21T01:32:00.896Z,7.77
2018-10-21T01:34:27.877Z,7.70
2018-10-21T01:36:54.784Z,7.63
2018-10-21T01:39:46.801Z,7.70
2018-10-21T01:42:13.764Z,7.69
2018-10-21T01:44:40.754Z,7.70
2018-10-21T01:47:08.624Z,7.79
2018-10-21T01:49:35.647Z,7.84
2018-10-21T01:54:39.709Z,7.93
2018-10-21T01:57:06.733Z,8.13
2018-10-21T01:59:33.640Z,7.94
2018-10-21T02:02:00.588Z,7.99
2018-10-21T02:04:27.468Z,7.82
2018-10-21T02:06:54.456Z,7.80
2018-10-21T02:09:23.363Z,7.85
2018-10-21T02:11:50.350Z,7.79
2018-10-21T02:14:20.371Z,7.70
2018-10-21T02:16:47.361Z,7.71
2018-10-21T02:19:16.262Z,7.68
2018-10-21T02:21:43.224Z,7.47
2018-10-21T02:24:10.204Z,7.47
2018-10-21T02:26:37.111Z,7.49
2018-10-21T02:29:04.399Z,7.50
2018-10-21T02:31:35.527Z,7.38
2018-10-21T02:34:06.004Z,7.38
2018-10-21T02:36:33.883Z,7.30
2018-10-21T02:39:08.271Z,7.27
2018-10-21T02:41:53.347Z,7.33
2018-10-21T02:44:28.312Z,7.28
2018-10-21T02:46:56.846Z,7.25
2018-10-21T02:49:23.791Z,7.08
2018-10-21T02:51:57.436Z,7.19
2018-10-21T02:54:27.498Z,7.32
2018-10-21T02:56:54.584Z,7.32
2018-10-21T02:59:21.861Z,7.29
2018-10-21T03:01:48.911Z,7.33
2018-10-21T03:04:15.836Z,7.21
2018-10-21T03:06:42.779Z,6.99
2018-10-21T03:09:10.736Z,6.92
2018-10-21T03:11:41.079Z,6.72
2018-10-21T03:14:09.092Z,6.91
2018-10-21T03:16:35.991Z,6.96
2018-10-21T03:19:02.956Z,6.99
2018-10-21T03:21:30.847Z,7.06
2018-10-21T03:23:57.815Z,6.89
2018-10-21T03:26:24.838Z,6.97
2018-10-21T03:28:52.807Z,6.96
2018-10-21T03:31:19.828Z,6.99
2018-10-21T03:33:46.836Z,6.95
2018-10-21T03:36:14.734Z,6.95
2018-10-21T03:38:45.306Z,6.84
2018-10-21T03:41:12.193Z,6.73
2018-10-21T03:43:39.124Z,6.72
2018-10-21T03:46:06.152Z,6.69
2018-10-21T03:48:35.032Z,6.66
2018-10-21T03:51:02.100Z,6.72
2018-10-21T03:53:28.979Z,6.73
2018-10-21T03:55:55.940Z,6.75
2018-10-21T03:58:23.919Z,6.64
2018-10-21T04:00:51.932Z,6.58
2018-10-21T04:03:20.831Z,6.52
2018-10-21T04:05:48.762Z,6.54
2018-10-21T04:08:21.825Z,6.61
2018-10-21T04:10:48.799Z,6.34
2018-10-21T04:13:15.859Z,6.18
2018-10-21T04:15:42.868Z,6.33
2018-10-21T04:18:09.828Z,6.46
2018-10-21T04:20:36.780Z,6.46
2018-10-21T04:23:04.720Z,6.43
2018-10-21T04:25:32.870Z,6.42
2018-10-21T04:28:01.821Z,6.43
2018-10-21T04:30:29.996Z,6.57
2018-10-21T04:33:19.245Z,6.64
2018-10-21T04:35:46.115Z,6.53
2018-10-21T04:38:32.713Z,6.69
2018-10-21T04:40:59.658Z,7.03
2018-10-21T04:43:29.703Z,6.61
2018-10-21T04:45:56.696Z,6.48
2018-10-21T04:48:24.611Z,6.52
2018-10-21T04:50:53.544Z,6.68
2018-10-21T04:53:21.427Z,6.62
2018-10-21T04:55:48.350Z,6.55
2018-10-21T04:58:15.435Z,6.67
2018-10-21T05:00:42.431Z,6.29
2018-10-21T05:03:09.279Z,6.17
2018-10-21T05:05:36.238Z,5.98
2018-10-21T05:08:03.213Z,5.78
2018-10-21T05:10:35.919Z,5.79
2018-10-21T05:13:03.589Z,5.82
2018-10-21T05:15:31.926Z,5.90
2018-10-21T05:17:59.074Z,5.89
2018-10-21T05:20:26.087Z,5.98
2018-10-21T05:22:54.092Z,5.97
2018-10-21T05:25:22.098Z,5.55
2018-10-21T05:27:52.407Z,5.88
2018-10-21T05:30:19.373Z,5.60
2018-10-21T05:32:48.304Z,5.57
2018-10-21T05:35:18.020Z,5.51
2018-10-21T05:37:44.970Z,5.41
2018-10-21T05:40:20.296Z,5.50
2018-10-21T05:42:49.146Z,5.60
2018-10-21T05:45:16.038Z,5.56
2018-10-21T05:47:43.032Z,5.44
2018-10-21T05:50:13.032Z,5.54
2018-10-21T05:52:42.279Z,5.54
2018-10-21T05:55:09.874Z,5.59
2018-10-21T05:57:37.084Z,5.42
2018-10-21T06:00:06.307Z,5.24
2018-10-21T06:02:33.395Z,5.50
2018-10-21T06:05:00.303Z,5.33
2018-10-21T06:07:27.267Z,5.39
2018-10-21T06:09:54.282Z,5.40
2018-10-21T06:12:21.312Z,5.50
2018-10-21T06:14:49.375Z,5.57
2018-10-21T06:17:17.899Z,5.46
2018-10-21T06:19:48.051Z,5.54
2018-10-21T06:22:22.998Z,5.48
2018-10-21T06:24:50.130Z,5.23
2018-10-21T06:27:18.155Z,5.23
2018-10-21T06:29:45.162Z,5.12
2018-10-21T06:32:13.069Z,4.96
2018-10-21T06:34:40.096Z,5.13
2018-10-21T06:37:07.039Z,5.21
2018-10-21T06:39:35.051Z,5.33
2018-10-21T06:42:03.012Z,5.48
2018-10-21T06:44:30.987Z,5.74
2018-10-21T06:46:57.996Z,5.88
2018-10-21T06:49:25.315Z,5.98
2018-10-21T06:51:53.248Z,6.12
2018-10-21T06:54:20.261Z,6.11
2018-10-21T06:56:48.406Z,6.15
2018-10-21T06:59:15.182Z,6.39
2018-10-21T07:01:42.143Z,6.44
2018-10-21T07:04:09.268Z,6.54
2018-10-21T07:06:36.111Z,6.58
2018-10-21T07:09:06.061Z,6.68
2018-10-21T07:11:33.035Z,6.56
2018-10-21T07:14:01.006Z,6.61
2018-10-21T07:16:28.158Z,6.61
2018-10-21T07:18:55.031Z,6.79
2018-10-21T07:23:58.125Z,6.94
2018-10-21T07:26:26.096Z,6.98
2018-10-21T07:28:57.333Z,7.15
2018-10-21T07:31:33.099Z,7.25
2018-10-21T07:34:00.070Z,7.46
2018-10-21T07:36:27.097Z,7.52
2018-10-21T07:38:55.951Z,7.64
2018-10-21T07:41:24.827Z,7.80
2018-10-21T07:43:51.807Z,7.96
2018-10-21T07:46:18.924Z,8.07
2018-10-21T07:48:47.686Z,8.16
2018-10-21T07:51:14.671Z,8.04
2018-10-21T07:53:41.638Z,8.08
2018-10-21T07:56:15.704Z,8.23
2018-10-21T07:58:42.655Z,8.35
2018-10-21T08:01:10.728Z,8.46
2018-10-21T08:03:38.705Z,8.36
2018-10-21T08:06:30.539Z,8.50
2018-10-21T08:08:57.642Z,8.70
2018-10-21T08:11:26.688Z,8.81
2018-10-21T08:13:53.683Z,8.86
2018-10-21T08:16:23.703Z,8.91
2018-10-21T08:18:51.481Z,9.12
2018-10-21T08:21:23.021Z,9.08
2018-10-21T08:23:49.906Z,9.17
2018-10-21T08:26:17.864Z,9.38
2018-10-21T08:28:46.785Z,9.55
2018-10-21T08:31:17.857Z,9.31
2018-10-21T08:33:46.762Z,9.46
2018-10-21T08:36:15.692Z,9.61
2018-10-21T08:38:43.732Z,9.63
2018-10-21T08:41:18.508Z,9.70
2018-10-21T08:43:45.501Z,9.73
2018-10-21T08:46:15.776Z,9.89
2018-10-21T08:51:18.731Z,10.03
2018-10-21T08:53:46.673Z,9.88
2018-10-21T08:56:21.333Z,10.08
2018-10-21T08:58:48.344Z,10.21
2018-10-21T09:01:22.480Z,10.37
2018-10-21T09:03:51.639Z,10.42
2018-10-21T09:06:19.584Z,10.65
2018-10-21T09:08:54.320Z,10.61
2018-10-21T09:13:56.449Z,11.08
2018-10-21T09:16:25.468Z,11.28
2018-10-21T09:18:52.439Z,11.30
2018-10-21T09:21:19.404Z,11.64
2018-10-21T09:23:55.093Z,11.58
2018-10-21T09:26:22.011Z,11.62
2018-10-21T09:28:48.943Z,11.72
2018-10-21T09:31:16.946Z,11.70
2018-10-21T09:33:43.823Z,11.91
2018-10-21T09:36:10.768Z,12.08
2018-10-21T09:38:37.739Z,12.25
2018-10-21T09:41:04.715Z,12.41
2018-10-21T09:43:31.681Z,12.55
2018-10-21T09:46:02.591Z,12.77
2018-10-21T09:48:29.531Z,12.34
2018-10-21T09:50:59.639Z,12.70
2018-10-21T09:53:26.628Z,12.87
2018-10-21T09:55:53.644Z,12.87
2018-10-21T09:58:28.171Z,12.64
2018-10-21T10:01:02.051Z,12.95
2018-10-21T10:03:29.874Z,12.89
2018-10-21T10:05:56.865Z,12.98
2018-10-21T10:08:25.800Z,13.20
2018-10-21T10:10:52.723Z,13.35
2018-10-21T10:13:19.911Z,13.20
2018-10-21T10:15:46.687Z,13.30
2018-10-21T10:18:13.665Z,13.35
2018-10-21T10:20:41.647Z,13.18
2018-10-21T10:23:08.660Z,13.06
2018-10-21T10:25:35.707Z,13.62
2018-10-21T10:28:07.993Z,13.91
2018-10-21T10:30:34.978Z,14.22
2018-10-21T10:33:02.847Z,14.10
2018-10-21T10:35:30.807Z,13.95
2018-10-21T10:37:58.841Z,13.88
2018-10-21T10:40:25.839Z,14.23
2018-10-21T10:42:53.789Z,14.43
2018-10-21T10:45:21.735Z,14.33
2018-10-21T10:47:48.689Z,14.70
2018-10-21T10:50:19.010Z,14.44
2018-10-21T10:52:46.036Z,14.24
2018-10-21T10:55:12.997Z,14.48
2018-10-21T10:57:39.933Z,14.35
2018-10-21T11:00:10.927Z,14.19
2018-10-21T11:02:37.900Z,14.29
2018-10-21T11:05:06.252Z,14.72
2018-10-21T11:07:34.331Z,14.99
2018-10-21T11:10:02.308Z,14.77
2018-10-21T11:12:31.169Z,14.94
2018-10-21T11:14:58.155Z,15.06
2018-10-21T11:17:25.104Z,15.21
2018-10-21T11:19:52.090Z,15.20
2018-10-21T11:22:21.200Z,15.22
2018-10-21T11:24:48.675Z,15.51
2018-10-21T11:27:21.081Z,15.70
2018-10-21T11:29:50.005Z,15.68
2018-10-21T11:32:17.039Z,16.07
2018-10-21T11:34:48.748Z,16.24
2018-10-21T11:37:15.789Z,16.05
2018-10-21T11:39:42.700Z,16.09
2018-10-21T11:42:09.699Z,16.11
2018-10-21T11:44:38.580Z,16.26
2018-10-21T11:47:05.576Z,16.32
2018-10-21T11:49:32.596Z,16.39
2018-10-21T11:51:59.543Z,16.20
2018-10-21T11:54:26.702Z,16.09
2018-10-21T11:56:53.659Z,16.23
2018-10-21T11:59:21.635Z,16.21
2018-10-21T12:01:48.611Z,16.16
2018-10-21T12:04:15.631Z,16.28
2018-10-21T12:06:42.594Z,16.65
2018-10-21T12:09:12.307Z,16.58
2018-10-21T12:11:40.302Z,16.44
2018-10-21T12:14:08.888Z,16.30
2018-10-21T12:16:36.793Z,16.40
2018-10-21T12:19:03.895Z,16.77
2018-10-21T12:21:30.826Z,16.98
2018-10-21T12:23:57.910Z,16.95
2018-10-21T12:26:24.859Z,16.93
2018-10-21T12:28:51.808Z,17.03
2018-10-21T12:31:18.793Z,16.74
2018-10-21T12:33:45.612Z,16.91
2018-10-21T12:36:15.332Z,16.92
2018-10-21T12:38:42.286Z,16.96
2018-10-21T12:41:09.869Z,17.04
2018-10-21T12:43:36.765Z,17.05
2018-10-21T12:46:05.777Z,17.25
2018-10-21T12:48:32.661Z,17.30
2018-10-21T12:51:01.575Z,17.44
2018-10-21T12:53:28.515Z,17.38
2018-10-21T12:55:55.476Z,17.40
2018-10-21T12:58:22.345Z,17.00
2018-10-21T13:00:50.297Z,17.09
2018-10-21T13:03:22.659Z,16.97
2018-10-21T13:05:49.668Z,17.03
2018-10-21T13:08:16.614Z,17.00
2018-10-21T13:10:43.609Z,16.99
2018-10-21T13:13:11.552Z,16.94
2018-10-21T13:15:38.418Z,16.96
2018-10-21T13:18:06.325Z,17.11
2018-10-21T13:20:33.931Z,17.14
2018-10-21T13:23:00.879Z,17.11
2018-10-21T13:25:28.369Z,17.07
2018-10-21T13:27:55.319Z,17.30
2018-10-21T13:30:23.230Z,17.18
2018-10-21T13:32:52.263Z,17.30
2018-10-21T13:35:19.310Z,17.36
2018-10-21T13:37:47.232Z,17.35
2018-10-21T13:40:14.341Z,17.25
2018-10-21T13:42:41.229Z,17.15
2018-10-21T13:45:08.176Z,17.19
2018-10-21T13:47:35.460Z,17.23
2018-10-21T13:50:02.547Z,17.36
2018-10-21T13:52:30.574Z,17.43
2018-10-21T13:54:57.701Z,17.41
2018-10-21T13:57:24.735Z,17.64
2018-10-21T13:59:51.671Z,17.34
2018-10-21T14:02:18.591Z,17.45
2018-10-21T14:04:45.512Z,17.30
2018-10-21T14:07:12.497Z,17.40
2018-10-21T14:09:39.376Z,17.41
2018-10-21T14:12:07.323Z,17.29
2018-10-21T14:14:35.315Z,17.18
2018-10-21T14:17:02.263Z,17.26
2018-10-21T14:19:29.300Z,17.08
2018-10-21T14:21:56.400Z,17.01
2018-10-21T14:24:23.475Z,17.02
2018-10-21T14:26:53.806Z,17.04
2018-10-21T14:29:29.031Z,17.04
2018-10-21T14:31:55.999Z,17.06
2018-10-21T14:34:22.906Z,17.05
2018-10-21T14:36:49.892Z,17.18
2018-10-21T14:39:18.970Z,17.24
2018-10-21T14:41:45.828Z,17.26
2018-10-21T14:44:13.911Z,17.18
2018-10-21T14:46:40.780Z,17.18
2018-10-21T14:49:08.713Z,17.28
2018-10-21T14:51:35.672Z,17.33
2018-10-21T14:54:03.793Z,17.24
2018-10-21T14:56:30.634Z,17.29
2018-10-21T14:58:57.622Z,17.10
2018-10-21T15:01:24.567Z,17.20
2018-10-21T15:03:51.559Z,17.14
2018-10-21T15:06:27.469Z,17.23
2018-10-21T15:08:54.532Z,17.11
2018-10-21T15:11:21.491Z,17.25
2018-10-21T15:13:49.439Z,17.27
2018-10-21T15:16:16.431Z,17.29
2018-10-21T15:18:45.067Z,17.33
2018-10-21T15:21:17.471Z,17.36
2018-10-21T15:23:45.583Z,17.35
2018-10-21T15:26:12.566Z,17.38
2018-10-21T15:28:39.413Z,17.48
2018-10-21T15:31:07.400Z,17.48
2018-10-21T15:33:34.908Z,17.54
2018-10-21T15:36:02.255Z,17.40
2018-10-21T15:38:29.229Z,17.30
2018-10-21T15:40:57.619Z,17.35
2018-10-21T15:43:24.590Z,17.05
2018-10-21T15:45:51.624Z,16.94
2018-10-21T15:48:18.502Z,16.76
2018-10-21T15:50:45.528Z,16.84
2018-10-21T15:53:12.363Z,16.58
2018-10-21T15:55:40.429Z,16.48
2018-10-21T15:58:07.368Z,16.44
2018-10-21T16:00:34.300Z,16.25
2018-10-21T16:03:01.304Z,16.12
2018-10-21T16:05:28.266Z,16.11
2018-10-21T16:07:55.224Z,15.91
2018-10-21T16:10:22.134Z,15.81
2018-10-21T16:12:49.144Z,15.98
2018-10-21T16:15:24.413Z,15.65
2018-10-21T16:17:51.380Z,15.45
2018-10-21T16:20:18.389Z,15.12
2018-10-21T16:22:45.603Z,15.06
2018-10-21T16:25:13.789Z,14.88
2018-10-21T16:27:41.102Z,14.81
2018-10-21T16:30:09.898Z,14.73
2018-10-21T16:32:38.218Z,14.66
2018-10-21T16:35:05.608Z,14.56
2018-10-21T16:37:32.577Z,14.45
2018-10-21T16:39:59.450Z,14.30
2018-10-21T16:42:26.402Z,14.18
2018-10-21T16:44:53.322Z,14.15
2018-10-21T16:47:20.304Z,14.01
2018-10-21T16:49:47.298Z,14.00
2018-10-21T16:52:15.214Z,14.03
2018-10-21T16:54:42.188Z,13.99
2018-10-21T16:57:09.042Z,13.90
2018-10-21T16:59:35.981Z,13.75
2018-10-21T17:02:02.941Z,13.74
2018-10-21T17:04:29.897Z,13.46
2018-10-21T17:06:56.848Z,13.48
2018-10-21T17:09:23.923Z,13.43
2018-10-21T17:11:50.642Z,13.40
2018-10-21T17:14:19.716Z,13.20
2018-10-21T17:16:46.773Z,13.08
2018-10-21T17:19:13.877Z,12.92
2018-10-21T17:21:40.750Z,12.66
2018-10-21T17:24:08.750Z,12.65
2018-10-21T17:26:35.803Z,12.57
2018-10-21T17:29:02.753Z,12.46
2018-10-21T17:31:30.726Z,12.47
2018-10-21T17:33:58.665Z,12.41
2018-10-21T17:36:25.612Z,12.17
2018-10-21T17:38:53.568Z,11.96
2018-10-21T17:41:20.572Z,11.78
2018-10-21T17:43:47.572Z,11.62
2018-10-21T17:46:15.587Z,11.51
2018-10-21T17:48:42.664Z,11.68
2018-10-21T17:51:09.539Z,11.69
2018-10-21T17:53:36.441Z,11.75
2018-10-21T17:56:03.403Z,11.87
2018-10-21T17:58:30.608Z,11.81
2018-10-21T18:00:57.350Z,11.64
2018-10-21T18:03:24.442Z,11.70
2018-10-21T18:05:51.424Z,11.65
2018-10-21T18:08:18.711Z,11.72
2018-10-21T18:10:45.735Z,11.86
2018-10-21T18:13:12.826Z,11.80
2018-10-21T18:15:39.802Z,11.51
2018-10-21T18:18:07.375Z,11.24
2018-10-21T18:20:34.758Z,11.07
2018-10-21T18:23:04.824Z,10.98
2018-10-21T18:25:32.824Z,11.05
2018-10-21T18:27:59.889Z,10.98
2018-10-21T18:30:26.881Z,11.06
2018-10-21T18:32:53.800Z,10.96
2018-10-21T18:35:20.834Z,10.81
2018-10-21T18:37:47.771Z,10.72
2018-10-21T18:40:14.850Z,10.81
2018-10-21T18:42:41.885Z,10.88
2018-10-21T18:45:09.916Z,10.91
2018-10-21T18:47:36.841Z,10.85
2018-10-21T18:50:06.463Z,11.04
2018-10-21T18:52:33.563Z,11.43
2018-10-21T18:55:00.615Z,11.68
2018-10-21T18:57:27.610Z,11.53
2018-10-21T18:59:54.630Z,11.66
2018-10-21T19:02:21.708Z,11.60
2018-10-21T19:04:48.686Z,11.58
2018-10-21T19:07:17.831Z,11.24
2018-10-21T19:09:44.787Z,10.75
2018-10-21T19:12:11.771Z,10.61
2018-10-21T19:14:38.755Z,10.55
2018-10-21T19:17:05.775Z,10.50
2018-10-21T19:19:35.620Z,10.44
2018-10-21T19:22:02.576Z,10.38
2018-10-21T19:24:29.540Z,10.38
2018-10-21T19:27:00.130Z,10.39
2018-10-21T19:29:27.948Z,10.49
2018-10-21T19:31:54.831Z,10.51
2018-10-21T19:34:22.289Z,10.50
2018-10-21T19:36:49.144Z,10.45
2018-10-21T19:39:16.072Z,10.31
2018-10-21T19:41:43.023Z,10.49
2018-10-21T19:44:10.785Z,10.47
2018-10-21T19:46:38.958Z,10.48
2018-10-21T19:49:10.544Z,10.57
2018-10-21T19:51:37.450Z,10.69
2018-10-21T19:54:05.136Z,10.51
2018-10-21T19:56:32.150Z,10.37
2018-10-21T19:59:03.568Z,10.28
2018-10-21T20:01:35.220Z,10.08
2018-10-21T20:04:02.209Z,9.94
2018-10-21T20:06:32.372Z,9.97
2018-10-21T20:08:59.256Z,10.00
2018-10-21T20:11:26.235Z,10.03
2018-10-21T20:13:53.189Z,9.74
2018-10-21T20:16:21.596Z,9.73
2018-10-21T20:18:48.520Z,9.64
2018-10-21T20:21:16.456Z,9.62
2018-10-21T20:23:43.343Z,9.59
2018-10-21T20:26:10.298Z,9.43
2018-10-21T20:28:37.183Z,9.41
2018-10-21T20:31:04.439Z,9.24
2018-10-21T20:33:31.549Z,9.33
2018-10-21T20:35:58.483Z,9.37
2018-10-21T20:38:34.512Z,9.25
2018-10-21T20:41:02.363Z,9.22
2018-10-21T20:43:29.256Z,9.12
2018-10-21T20:45:56.220Z,9.26
2018-10-21T20:48:26.966Z,9.13
2018-10-21T20:50:53.905Z,9.12
2018-10-21T20:53:20.819Z,9.02
2018-10-21T20:55:47.779Z,9.02
2018-10-21T20:58:18.013Z,9.10
2018-10-21T21:00:48.405Z,9.21
2018-10-21T21:03:15.376Z,9.12
2018-10-21T21:05:42.349Z,9.09
2018-10-21T21:08:09.350Z,9.18
2018-10-21T21:10:36.287Z,9.10
2018-10-21T21:13:03.234Z,9.15
2018-10-21T21:15:30.222Z,9.10
2018-10-21T21:17:57.225Z,9.23
2018-10-21T21:20:25.120Z,9.25
2018-10-21T21:22:52.972Z,9.19
2018-10-21T21:25:19.931Z,9.22
2018-10-21T21:27:47.043Z,9.05
2018-10-21T21:30:14.069Z,9.06
2018-10-21T21:32:40.959Z,9.04
2018-10-21T21:35:08.849Z,8.89
2018-10-21T21:37:36.052Z,8.65
2018-10-21T21:40:06.163Z,8.46
2018-10-21T21:42:37.879Z,8.45
2018-10-21T21:45:05.089Z,8.59
2018-10-21T21:47:31.995Z,8.65
2018-10-21T21:49:58.955Z,8.54
2018-10-21T21:52:25.952Z,8.50
2018-10-21T21:54:52.939Z,8.68
2018-10-21T21:57:21.963Z,8.58
2018-10-21T21:59:48.879Z,8.61
2018-10-21T22:02:15.844Z,8.61
2018-10-21T22:04:42.852Z,8.89
2018-10-21T22:07:09.802Z,8.50
2018-10-21T22:09:36.776Z,8.10
2018-10-21T22:12:03.805Z,7.88
2018-10-21T22:14:31.669Z,7.73
2018-10-21T22:16:59.622Z,7.64
2018-10-21T22:19:26.517Z,7.58
2018-10-21T22:21:53.481Z,7.61
2018-10-21T22:24:20.480Z,7.74
2018-10-21T22:26:47.415Z,7.70
2018-10-21T22:29:14.336Z,7.66
2018-10-21T22:31:42.382Z,7.76
2018-10-21T22:34:13.526Z,7.79
2018-10-21T22:36:40.428Z,7.92
2018-10-21T22:39:07.625Z,7.94
2018-10-21T22:41:34.578Z,7.76
2018-10-21T22:44:01.552Z,7.71
2018-10-21T22:46:28.545Z,7.86
2018-10-21T22:49:02.551Z,7.77
2018-10-21T22:51:29.545Z,7.70
2018-10-21T22:53:57.465Z,7.93
2018-10-21T22:56:24.387Z,7.86
2018-10-21T22:58:52.489Z,7.65
2018-10-21T23:01:19.463Z,7.70
2018-10-21T23:03:46.477Z,7.69
2018-10-21T23:06:13.497Z,7.71
2018-10-21T23:08:51.991Z,7.77
2018-10-21T23:11:19.935Z,7.75
2018-10-21T23:13:46.910Z,7.63
2018-10-21T23:16:13.880Z,7.65
2018-10-21T23:18:41.133Z,7.56
2018-10-21T23:21:13.567Z,7.48
2018-10-21T23:23:40.545Z,7.40
2018-10-21T23:26:07.503Z,7.33
2018-10-21T23:28:36.431Z,7.26
2018-10-21T23:31:08.243Z,7.26
2018-10-21T23:33:35.172Z,7.25
2018-10-21T23:36:02.165Z,7.20
2018-10-21T23:38:36.575Z,7.31
2018-10-21T23:41:05.502Z,7.28
2018-10-21T23:43:33.411Z,7.34
2018-10-21T23:46:01.395Z,7.33
2018-10-21T23:48:28.377Z,7.28
2018-10-21T23:50:56.335Z,7.18
2018-10-21T23:53:23.226Z,7.25
2018-10-21T23:55:51.104Z,7.29
2018-10-21T23:58:21.512Z,7.22
